sensor_id;sensor_type;location;lat;lon;timestamp;pressure;altitude;pressure_sealevel;temperature;humidity
35694;BME280;21812;55.536;37.664;2023-05-15T00:00:27;100555.75;;;10.45;60.64
35694;BME280;21812;55.536;37.664;2023-05-15T00:02:53;100577.09;;;10.53;60.99
35694;BME280;21812;55.536;37.664;2023-05-15T00:05:19;100573.25;;;10.64;61.26
35694;BME280;21812;55.536;37.664;2023-05-15T00:07:45;100573.41;;;10.54;60.50
35694;BME280;21812;55.536;37.664;2023-05-15T00:10:11;100567.25;;;10.46;61.35
35694;BME280;21812;55.536;37.664;2023-05-15T00:12:37;100571.69;;;10.70;60.60
35694;BME280;21812;55.536;37.664;2023-05-15T00:15:03;100571.03;;;10.68;60.31
35694;BME280;21812;55.536;37.664;2023-05-15T00:17:31;100569.56;;;10.65;61.47
35694;BME280;21812;55.536;37.664;2023-05-15T00:19:56;100576.09;;;10.63;61.03
35694;BME280;21812;55.536;37.664;2023-05-15T00:22:24;100574.41;;;10.62;60.80
35694;BME280;21812;55.536;37.664;2023-05-15T00:24:50;100567.22;;;10.29;61.20
35694;BME280;21812;55.536;37.664;2023-05-15T00:27:16;100565.56;;;10.20;61.89
35694;BME280;21812;55.536;37.664;2023-05-15T00:29:42;100573.75;;;10.43;61.50
35694;BME280;21812;55.536;37.664;2023-05-15T00:32:08;100577.75;;;10.55;61.37
35694;BME280;21812;55.536;37.664;2023-05-15T00:34:33;100573.25;;;10.64;60.89
35694;BME280;21812;55.536;37.664;2023-05-15T00:36:59;100585.06;;;10.70;60.57
35694;BME280;21812;55.536;37.664;2023-05-15T00:39:25;100577.25;;;10.52;60.78
35694;BME280;21812;55.536;37.664;2023-05-15T00:41:51;100581.41;;;10.54;61.19
35694;BME280;21812;55.536;37.664;2023-05-15T00:44:17;100585.09;;;10.53;60.88
35694;BME280;21812;55.536;37.664;2023-05-15T00:46:45;100577.44;;;10.59;61.09
35694;BME280;21812;55.536;37.664;2023-05-15T00:49:12;100576.53;;;10.83;61.28
35694;BME280;21812;55.536;37.664;2023-05-15T00:51:42;100563.97;;;11.00;60.71
35694;BME280;21812;55.536;37.664;2023-05-15T00:54:09;100580.59;;;11.18;59.75
35694;BME280;21812;55.536;37.664;2023-05-15T00:56:36;100574.41;;;11.26;59.11
35694;BME280;21812;55.536;37.664;2023-05-15T00:59:03;100574.44;;;11.49;59.27
35694;BME280;21812;55.536;37.664;2023-05-15T01:01:29;100584.06;;;11.35;58.16
35694;BME280;21812;55.536;37.664;2023-05-15T01:04:00;100579.41;;;11.21;58.46
35694;BME280;21812;55.536;37.664;2023-05-15T01:06:29;100554.28;;;10.90;59.23
35694;BME280;21812;55.536;37.664;2023-05-15T01:08:56;100585.75;;;11.28;59.67
35694;BME280;21812;55.536;37.664;2023-05-15T01:11:26;100593.22;;;11.41;58.67
35694;BME280;21812;55.536;37.664;2023-05-15T01:13:52;100583.63;;;11.54;59.71
35694;BME280;21812;55.536;37.664;2023-05-15T01:16:20;100556.00;;;11.23;60.05
35694;BME280;21812;55.536;37.664;2023-05-15T01:18:46;100586.34;;;11.38;60.06
35694;BME280;21812;55.536;37.664;2023-05-15T01:24:15;100572.47;;;11.43;59.02
35694;BME280;21812;55.536;37.664;2023-05-15T01:31:59;100580.94;;;11.23;59.11
35694;BME280;21812;55.536;37.664;2023-05-15T01:34:47;100585.16;;;11.49;59.43
35694;BME280;21812;55.536;37.664;2023-05-15T01:37:20;100571.56;;;11.59;59.48
35694;BME280;21812;55.536;37.664;2023-05-15T01:39:48;100578.59;;;11.83;59.12
35694;BME280;21812;55.536;37.664;2023-05-15T01:42:18;100581.94;;;11.85;57.19
35694;BME280;21812;55.536;37.664;2023-05-15T01:44:50;100586.25;;;11.86;56.96
35694;BME280;21812;55.536;37.664;2023-05-15T01:47:22;100547.69;;;11.49;56.89
35694;BME280;21812;55.536;37.664;2023-05-15T01:49:53;100588.78;;;11.56;57.11
35694;BME280;21812;55.536;37.664;2023-05-15T01:52:29;100573.38;;;11.27;58.09
35694;BME280;21812;55.536;37.664;2023-05-15T01:54:57;100600.06;;;10.95;59.21
35694;BME280;21812;55.536;37.664;2023-05-15T01:57:25;100593.78;;;10.72;59.19
35694;BME280;21812;55.536;37.664;2023-05-15T01:59:53;100543.06;;;10.31;60.26
35694;BME280;21812;55.536;37.664;2023-05-15T02:02:22;100595.41;;;10.73;59.74
35694;BME280;21812;55.536;37.664;2023-05-15T02:04:49;100570.56;;;10.64;59.46
35694;BME280;21812;55.536;37.664;2023-05-15T02:07:16;100610.41;;;10.99;59.37
35694;BME280;21812;55.536;37.664;2023-05-15T02:09:42;100606.03;;;11.14;59.22
35694;BME280;21812;55.536;37.664;2023-05-15T02:12:09;100601.13;;;11.26;58.61
35694;BME280;21812;55.536;37.664;2023-05-15T02:14:36;100609.06;;;11.42;59.71
35694;BME280;21812;55.536;37.664;2023-05-15T02:17:02;100608.28;;;11.33;58.11
35694;BME280;21812;55.536;37.664;2023-05-15T02:19:28;100605.97;;;11.22;59.16
35694;BME280;21812;55.536;37.664;2023-05-15T02:22:05;100601.94;;;11.26;59.27
35694;BME280;21812;55.536;37.664;2023-05-15T02:24:32;100595.25;;;11.39;58.70
35694;BME280;21812;55.536;37.664;2023-05-15T02:29:59;100610.69;;;11.51;58.61
35694;BME280;21812;55.536;37.664;2023-05-15T02:36:16;100598.50;;;12.11;58.39
35694;BME280;21812;55.536;37.664;2023-05-15T02:38:47;100600.41;;;12.26;58.25
35694;BME280;21812;55.536;37.664;2023-05-15T02:41:14;100596.78;;;12.19;57.24
35694;BME280;21812;55.536;37.664;2023-05-15T02:43:41;100603.50;;;12.52;58.15
35694;BME280;21812;55.536;37.664;2023-05-15T02:46:10;100595.59;;;12.59;57.05
35694;BME280;21812;55.536;37.664;2023-05-15T02:48:38;100581.84;;;12.62;57.15
35694;BME280;21812;55.536;37.664;2023-05-15T02:51:05;100601.63;;;12.76;56.22
35694;BME280;21812;55.536;37.664;2023-05-15T02:53:32;100592.84;;;12.82;56.93
35694;BME280;21812;55.536;37.664;2023-05-15T02:55:57;100605.81;;;12.94;55.73
35694;BME280;21812;55.536;37.664;2023-05-15T02:58:23;100602.47;;;12.91;56.05
35694;BME280;21812;55.536;37.664;2023-05-15T03:00:49;100600.16;;;13.03;56.39
35694;BME280;21812;55.536;37.664;2023-05-15T03:03:15;100604.88;;;12.86;56.42
35694;BME280;21812;55.536;37.664;2023-05-15T03:05:41;100604.09;;;12.63;57.14
35694;BME280;21812;55.536;37.664;2023-05-15T03:08:06;100606.41;;;12.28;57.82
35694;BME280;21812;55.536;37.664;2023-05-15T03:10:32;100607.94;;;11.99;59.18
35694;BME280;21812;55.536;37.664;2023-05-15T03:12:58;100608.66;;;11.93;60.08
35694;BME280;21812;55.536;37.664;2023-05-15T03:15:24;100618.66;;;11.99;60.42
35694;BME280;21812;55.536;37.664;2023-05-15T03:17:49;100598.69;;;12.10;59.36
35694;BME280;21812;55.536;37.664;2023-05-15T03:20:15;100614.63;;;12.49;59.77
35694;BME280;21812;55.536;37.664;2023-05-15T03:22:41;100617.81;;;12.83;58.39
35694;BME280;21812;55.536;37.664;2023-05-15T03:25:09;100621.53;;;12.97;56.69
35694;BME280;21812;55.536;37.664;2023-05-15T03:27:36;100629.63;;;12.88;57.36
35694;BME280;21812;55.536;37.664;2023-05-15T03:30:03;100623.84;;;13.00;56.54
35694;BME280;21812;55.536;37.664;2023-05-15T03:32:31;100619.94;;;13.17;57.35
35694;BME280;21812;55.536;37.664;2023-05-15T03:34:57;100628.00;;;13.17;56.22
35694;BME280;21812;55.536;37.664;2023-05-15T03:37:22;100621.72;;;13.40;57.86
35694;BME280;21812;55.536;37.664;2023-05-15T03:39:48;100624.22;;;13.41;56.14
35694;BME280;21812;55.536;37.664;2023-05-15T03:42:14;100620.94;;;13.76;56.39
35694;BME280;21812;55.536;37.664;2023-05-15T03:44:39;100617.25;;;13.98;55.75
35694;BME280;21812;55.536;37.664;2023-05-15T03:47:05;100619.56;;;14.44;55.89
35694;BME280;21812;55.536;37.664;2023-05-15T03:49:31;100618.06;;;14.57;59.40
35694;BME280;21812;55.536;37.664;2023-05-15T03:51:57;100619.03;;;14.56;60.15
35694;BME280;21812;55.536;37.664;2023-05-15T03:54:23;100620.69;;;14.78;61.16
35694;BME280;21812;55.536;37.664;2023-05-15T03:56:51;100620.78;;;14.92;59.04
35694;BME280;21812;55.536;37.664;2023-05-15T03:59:17;100624.75;;;15.31;59.59
35694;BME280;21812;55.536;37.664;2023-05-15T04:01:43;100628.34;;;15.44;56.71
35694;BME280;21812;55.536;37.664;2023-05-15T04:04:09;100625.28;;;15.54;56.46
35694;BME280;21812;55.536;37.664;2023-05-15T04:06:34;100595.41;;;15.49;55.81
35694;BME280;21812;55.536;37.664;2023-05-15T04:09:00;100618.22;;;15.53;52.84
35694;BME280;21812;55.536;37.664;2023-05-15T04:11:26;100625.59;;;15.38;54.42
35694;BME280;21812;55.536;37.664;2023-05-15T04:13:53;100626.91;;;15.49;54.82
35694;BME280;21812;55.536;37.664;2023-05-15T04:16:18;100626.13;;;15.68;54.34
35694;BME280;21812;55.536;37.664;2023-05-15T04:18:44;100622.28;;;15.77;53.08
35694;BME280;21812;55.536;37.664;2023-05-15T04:21:10;100622.50;;;15.89;53.73
35694;BME280;21812;55.536;37.664;2023-05-15T04:23:35;100622.97;;;16.06;53.51
35694;BME280;21812;55.536;37.664;2023-05-15T04:26:01;100620.94;;;16.15;52.87
35694;BME280;21812;55.536;37.664;2023-05-15T04:28:27;100620.75;;;16.30;52.00
35694;BME280;21812;55.536;37.664;2023-05-15T04:30:52;100624.69;;;16.47;51.79
35694;BME280;21812;55.536;37.664;2023-05-15T04:33:18;100608.09;;;16.57;51.23
35694;BME280;21812;55.536;37.664;2023-05-15T04:35:44;100611.00;;;16.62;50.61
35694;BME280;21812;55.536;37.664;2023-05-15T04:38:09;100609.34;;;16.88;49.61
35694;BME280;21812;55.536;37.664;2023-05-15T04:40:35;100615.09;;;17.11;48.28
35694;BME280;21812;55.536;37.664;2023-05-15T04:43:01;100616.72;;;17.26;47.24
35694;BME280;21812;55.536;37.664;2023-05-15T04:45:28;100615.47;;;17.28;47.06
35694;BME280;21812;55.536;37.664;2023-05-15T04:47:54;100619.63;;;17.31;46.22
35694;BME280;21812;55.536;37.664;2023-05-15T04:50:19;100623.56;;;17.35;46.08
35694;BME280;21812;55.536;37.664;2023-05-15T04:52:45;100616.69;;;17.32;45.98
35694;BME280;21812;55.536;37.664;2023-05-15T04:55:11;100621.47;;;17.37;45.94
35694;BME280;21812;55.536;37.664;2023-05-15T04:57:36;100623.13;;;17.38;45.21
35694;BME280;21812;55.536;37.664;2023-05-15T05:00:03;100625.81;;;17.45;45.36
35694;BME280;21812;55.536;37.664;2023-05-15T05:02:37;100619.16;;;17.47;45.27
35694;BME280;21812;55.536;37.664;2023-05-15T05:05:04;100625.00;;;17.44;45.47
35694;BME280;21812;55.536;37.664;2023-05-15T05:07:30;100616.44;;;17.47;44.85
35694;BME280;21812;55.536;37.664;2023-05-15T05:09:56;100613.81;;;17.27;44.53
35694;BME280;21812;55.536;37.664;2023-05-15T05:12:22;100620.81;;;17.48;45.21
35694;BME280;21812;55.536;37.664;2023-05-15T05:14:48;100617.00;;;17.63;45.11
35694;BME280;21812;55.536;37.664;2023-05-15T05:17:13;100616.78;;;17.64;44.91
35694;BME280;21812;55.536;37.664;2023-05-15T05:19:39;100615.31;;;17.68;44.81
35694;BME280;21812;55.536;37.664;2023-05-15T05:22:06;100604.31;;;17.70;44.62
35694;BME280;21812;55.536;37.664;2023-05-15T05:24:32;100604.69;;;17.80;43.92
35694;BME280;21812;55.536;37.664;2023-05-15T05:27:00;100610.56;;;17.64;43.76
35694;BME280;21812;55.536;37.664;2023-05-15T05:29:26;100606.94;;;17.83;43.86
35694;BME280;21812;55.536;37.664;2023-05-15T05:31:52;100603.63;;;17.88;43.34
35694;BME280;21812;55.536;37.664;2023-05-15T05:34:18;100608.16;;;17.94;43.04
35694;BME280;21812;55.536;37.664;2023-05-15T05:36:44;100606.19;;;17.63;41.75
35694;BME280;21812;55.536;37.664;2023-05-15T05:39:10;100617.06;;;17.49;42.70
35694;BME280;21812;55.536;37.664;2023-05-15T05:41:36;100607.41;;;17.67;43.90
35694;BME280;21812;55.536;37.664;2023-05-15T05:44:01;100605.69;;;17.86;43.06
35694;BME280;21812;55.536;37.664;2023-05-15T05:46:27;100607.50;;;17.98;42.72
35694;BME280;21812;55.536;37.664;2023-05-15T05:48:53;100575.19;;;17.72;42.64
35694;BME280;21812;55.536;37.664;2023-05-15T05:51:19;100603.22;;;17.77;41.70
35694;BME280;21812;55.536;37.664;2023-05-15T05:53:45;100602.34;;;17.90;42.36
35694;BME280;21812;55.536;37.664;2023-05-15T05:56:10;100593.22;;;17.78;41.81
35694;BME280;21812;55.536;37.664;2023-05-15T05:58:36;100600.66;;;17.96;42.42
35694;BME280;21812;55.536;37.664;2023-05-15T06:01:02;100596.53;;;17.93;42.36
35694;BME280;21812;55.536;37.664;2023-05-15T06:03:28;100589.22;;;17.49;41.16
35694;BME280;21812;55.536;37.664;2023-05-15T06:05:53;100597.69;;;17.66;43.38
35694;BME280;21812;55.536;37.664;2023-05-15T06:08:19;100588.28;;;17.75;43.99
35694;BME280;21812;55.536;37.664;2023-05-15T06:10:45;100592.75;;;17.49;44.43
35694;BME280;21812;55.536;37.664;2023-05-15T06:13:11;100591.38;;;17.33;43.31
35694;BME280;21812;55.536;37.664;2023-05-15T06:15:40;100596.06;;;17.51;44.15
35694;BME280;21812;55.536;37.664;2023-05-15T06:18:06;100591.66;;;17.64;43.88
35694;BME280;21812;55.536;37.664;2023-05-15T06:20:32;100589.69;;;17.39;42.31
35694;BME280;21812;55.536;37.664;2023-05-15T06:22:58;100586.19;;;17.77;43.95
35694;BME280;21812;55.536;37.664;2023-05-15T06:25:24;100579.78;;;18.10;44.46
35694;BME280;21812;55.536;37.664;2023-05-15T06:27:49;100577.47;;;18.39;49.28
35694;BME280;21812;55.536;37.664;2023-05-15T06:30:15;100577.81;;;18.49;50.55
35694;BME280;21812;55.536;37.664;2023-05-15T06:32:41;100581.31;;;18.74;50.93
35694;BME280;21812;55.536;37.664;2023-05-15T06:35:08;100561.84;;;18.66;50.65
35694;BME280;21812;55.536;37.664;2023-05-15T06:37:35;100582.72;;;18.33;42.35
35694;BME280;21812;55.536;37.664;2023-05-15T06:40:00;100581.59;;;18.16;46.14
35694;BME280;21812;55.536;37.664;2023-05-15T06:42:27;100579.41;;;18.82;54.74
35694;BME280;21812;55.536;37.664;2023-05-15T06:44:53;100587.25;;;19.27;49.88
35694;BME280;21812;55.536;37.664;2023-05-15T06:47:19;100587.16;;;19.52;48.01
35694;BME280;21812;55.536;37.664;2023-05-15T06:49:45;100580.50;;;19.66;44.22
35694;BME280;21812;55.536;37.664;2023-05-15T06:52:11;100581.03;;;19.75;42.47
35694;BME280;21812;55.536;37.664;2023-05-15T06:54:36;100576.13;;;19.84;41.96
35694;BME280;21812;55.536;37.664;2023-05-15T06:57:05;100574.03;;;19.98;42.57
35694;BME280;21812;55.536;37.664;2023-05-15T06:59:30;100575.97;;;20.09;41.80
35694;BME280;21812;55.536;37.664;2023-05-15T07:01:58;100583.22;;;19.97;39.42
35694;BME280;21812;55.536;37.664;2023-05-15T07:04:24;100581.09;;;19.99;39.38
35694;BME280;21812;55.536;37.664;2023-05-15T07:06:50;100578.53;;;20.04;39.27
35694;BME280;21812;55.536;37.664;2023-05-15T07:09:16;100579.47;;;19.98;38.54
35694;BME280;21812;55.536;37.664;2023-05-15T07:11:41;100583.50;;;20.07;38.88
35694;BME280;21812;55.536;37.664;2023-05-15T07:14:07;100575.75;;;20.22;39.18
35694;BME280;21812;55.536;37.664;2023-05-15T07:16:33;100575.53;;;20.36;38.86
35694;BME280;21812;55.536;37.664;2023-05-15T07:18:59;100574.59;;;20.42;39.14
35694;BME280;21812;55.536;37.664;2023-05-15T07:21:25;100571.44;;;20.45;38.56
35694;BME280;21812;55.536;37.664;2023-05-15T07:23:50;100579.22;;;19.69;36.73
35694;BME280;21812;55.536;37.664;2023-05-15T07:26:16;100581.31;;;19.18;37.98
35694;BME280;21812;55.536;37.664;2023-05-15T07:28:42;100577.75;;;18.81;37.83
35694;BME280;21812;55.536;37.664;2023-05-15T07:31:07;100572.72;;;18.59;38.84
35694;BME280;21812;55.536;37.664;2023-05-15T07:33:33;100571.75;;;18.28;38.48
35694;BME280;21812;55.536;37.664;2023-05-15T07:35:59;100571.84;;;18.15;39.86
35694;BME280;21812;55.536;37.664;2023-05-15T07:38:25;100564.00;;;18.07;40.15
35694;BME280;21812;55.536;37.664;2023-05-15T07:40:51;100562.03;;;17.89;39.97
35694;BME280;21812;55.536;37.664;2023-05-15T07:43:16;100557.50;;;17.76;41.06
35694;BME280;21812;55.536;37.664;2023-05-15T07:45:42;100564.19;;;17.73;40.79
35694;BME280;21812;55.536;37.664;2023-05-15T07:48:18;100564.34;;;17.85;40.67
35694;BME280;21812;55.536;37.664;2023-05-15T07:50:45;100564.41;;;17.72;40.88
35694;BME280;21812;55.536;37.664;2023-05-15T07:53:12;100556.69;;;17.75;41.07
35694;BME280;21812;55.536;37.664;2023-05-15T07:55:39;100559.19;;;17.70;41.24
35694;BME280;21812;55.536;37.664;2023-05-15T07:58:05;100554.47;;;17.66;41.21
35694;BME280;21812;55.536;37.664;2023-05-15T08:00:32;100559.59;;;17.74;40.85
35694;BME280;21812;55.536;37.664;2023-05-15T08:02:58;100557.59;;;17.63;39.83
35694;BME280;21812;55.536;37.664;2023-05-15T08:05:24;100556.00;;;17.48;40.28
35694;BME280;21812;55.536;37.664;2023-05-15T08:07:50;100552.44;;;17.54;40.77
35694;BME280;21812;55.536;37.664;2023-05-15T08:10:16;100553.84;;;17.64;40.11
35694;BME280;21812;55.536;37.664;2023-05-15T08:12:42;100550.25;;;17.76;40.61
35694;BME280;21812;55.536;37.664;2023-05-15T08:15:11;100550.88;;;17.72;39.77
35694;BME280;21812;55.536;37.664;2023-05-15T08:17:37;100554.66;;;17.71;39.89
35694;BME280;21812;55.536;37.664;2023-05-15T08:20:03;100551.28;;;17.75;40.58
35694;BME280;21812;55.536;37.664;2023-05-15T08:22:30;100555.41;;;17.78;40.72
35694;BME280;21812;55.536;37.664;2023-05-15T08:24:57;100545.47;;;17.78;40.55
35694;BME280;21812;55.536;37.664;2023-05-15T08:27:24;100541.31;;;17.76;40.27
35694;BME280;21812;55.536;37.664;2023-05-15T08:29:50;100545.00;;;17.82;39.72
35694;BME280;21812;55.536;37.664;2023-05-15T08:32:17;100539.44;;;17.76;38.91
35694;BME280;21812;55.536;37.664;2023-05-15T08:34:43;100537.84;;;17.69;38.97
35694;BME280;21812;55.536;37.664;2023-05-15T08:37:09;100523.63;;;17.80;39.46
35694;BME280;21812;55.536;37.664;2023-05-15T08:39:35;100535.75;;;18.03;40.32
35694;BME280;21812;55.536;37.664;2023-05-15T08:42:08;100538.09;;;18.24;39.22
35694;BME280;21812;55.536;37.664;2023-05-15T08:44:35;100530.59;;;18.26;39.33
35694;BME280;21812;55.536;37.664;2023-05-15T08:47:02;100529.19;;;18.42;40.41
35694;BME280;21812;55.536;37.664;2023-05-15T08:49:38;100525.16;;;18.51;38.82
35694;BME280;21812;55.536;37.664;2023-05-15T08:52:06;100522.16;;;18.60;39.17
35694;BME280;21812;55.536;37.664;2023-05-15T08:54:33;100517.44;;;18.55;37.59
35694;BME280;21812;55.536;37.664;2023-05-15T08:56:59;100515.50;;;18.62;39.76
35694;BME280;21812;55.536;37.664;2023-05-15T08:59:27;100509.41;;;18.67;39.47
35694;BME280;21812;55.536;37.664;2023-05-15T09:01:52;100516.56;;;18.80;38.78
35694;BME280;21812;55.536;37.664;2023-05-15T09:04:19;100519.41;;;18.85;38.10
35694;BME280;21812;55.536;37.664;2023-05-15T09:06:46;100510.09;;;18.99;38.18
35694;BME280;21812;55.536;37.664;2023-05-15T09:09:12;100502.91;;;19.11;38.16
35694;BME280;21812;55.536;37.664;2023-05-15T09:11:42;100495.66;;;19.05;37.69
35694;BME280;21812;55.536;37.664;2023-05-15T09:14:08;100495.38;;;18.95;37.32
35694;BME280;21812;55.536;37.664;2023-05-15T09:16:36;100496.41;;;18.75;38.50
35694;BME280;21812;55.536;37.664;2023-05-15T09:19:02;100491.88;;;18.69;39.13
35694;BME280;21812;55.536;37.664;2023-05-15T09:21:29;100501.53;;;18.84;37.22
35694;BME280;21812;55.536;37.664;2023-05-15T09:24:20;100487.53;;;19.24;38.10
35694;BME280;21812;55.536;37.664;2023-05-15T09:27:02;100454.94;;;19.00;38.26
35694;BME280;21812;55.536;37.664;2023-05-15T09:29:30;100440.47;;;18.69;37.77
35694;BME280;21812;55.536;37.664;2023-05-15T09:32:01;100456.69;;;18.94;36.96
35694;BME280;21812;55.536;37.664;2023-05-15T09:34:31;100478.53;;;19.11;36.48
35694;BME280;21812;55.536;37.664;2023-05-15T09:36:59;100473.72;;;19.13;37.62
35694;BME280;21812;55.536;37.664;2023-05-15T09:39:24;100479.56;;;19.29;37.64
35694;BME280;21812;55.536;37.664;2023-05-15T09:41:51;100474.69;;;19.19;35.80
35694;BME280;21812;55.536;37.664;2023-05-15T09:44:18;100457.31;;;19.08;36.88
35694;BME280;21812;55.536;37.664;2023-05-15T09:46:45;100472.47;;;19.58;36.84
35694;BME280;21812;55.536;37.664;2023-05-15T09:49:11;100474.56;;;19.86;36.31
35694;BME280;21812;55.536;37.664;2023-05-15T09:51:37;100470.09;;;20.16;35.51
35694;BME280;21812;55.536;37.664;2023-05-15T09:54:03;100466.09;;;20.42;36.23
35694;BME280;21812;55.536;37.664;2023-05-15T09:56:29;100455.25;;;20.65;35.63
35694;BME280;21812;55.536;37.664;2023-05-15T09:58:59;100455.97;;;21.01;34.32
35694;BME280;21812;55.536;37.664;2023-05-15T10:01:25;100457.44;;;21.21;32.98
35694;BME280;21812;55.536;37.664;2023-05-15T10:03:59;100455.22;;;21.46;34.73
35694;BME280;21812;55.536;37.664;2023-05-15T10:06:25;100431.03;;;21.62;33.96
35694;BME280;21812;55.536;37.664;2023-05-15T10:08:54;100445.13;;;21.93;33.04
35694;BME280;21812;55.536;37.664;2023-05-15T10:11:20;100444.41;;;22.14;30.81
35694;BME280;21812;55.536;37.664;2023-05-15T10:13:48;100441.25;;;22.22;31.22
35694;BME280;21812;55.536;37.664;2023-05-15T10:16:14;100440.91;;;22.36;32.36
35694;BME280;21812;55.536;37.664;2023-05-15T10:18:44;100442.47;;;22.49;29.96
35694;BME280;21812;55.536;37.664;2023-05-15T10:21:11;100434.28;;;22.49;28.87
35694;BME280;21812;55.536;37.664;2023-05-15T10:23:39;100439.25;;;22.74;29.16
35694;BME280;21812;55.536;37.664;2023-05-15T10:26:11;100444.88;;;22.89;30.46
35694;BME280;21812;55.536;37.664;2023-05-15T10:28:39;100427.00;;;22.98;31.08
35694;BME280;21812;55.536;37.664;2023-05-15T10:31:06;100426.63;;;23.12;29.20
35694;BME280;21812;55.536;37.664;2023-05-15T10:33:32;100420.66;;;23.15;29.28
35694;BME280;21812;55.536;37.664;2023-05-15T10:36:00;100421.44;;;23.37;29.46
35694;BME280;21812;55.536;37.664;2023-05-15T10:38:26;100410.84;;;23.73;29.25
35694;BME280;21812;55.536;37.664;2023-05-15T10:40:56;100417.53;;;23.88;28.31
35694;BME280;21812;55.536;37.664;2023-05-15T10:43:23;100408.69;;;24.13;27.54
35694;BME280;21812;55.536;37.664;2023-05-15T10:45:51;100411.25;;;24.35;27.93
35694;BME280;21812;55.536;37.664;2023-05-15T10:48:17;100412.75;;;24.53;27.74
35694;BME280;21812;55.536;37.664;2023-05-15T10:50:43;100419.75;;;24.96;28.11
35694;BME280;21812;55.536;37.664;2023-05-15T10:53:09;100412.16;;;25.19;26.59
35694;BME280;21812;55.536;37.664;2023-05-15T10:55:35;100404.47;;;25.06;26.60
35694;BME280;21812;55.536;37.664;2023-05-15T10:58:07;100407.00;;;25.28;27.59
35694;BME280;21812;55.536;37.664;2023-05-15T11:00:41;100388.94;;;25.32;26.53
35694;BME280;21812;55.536;37.664;2023-05-15T11:03:07;100405.91;;;25.75;27.03
35694;BME280;21812;55.536;37.664;2023-05-15T11:06:10;100401.19;;;26.27;25.53
35694;BME280;21812;55.536;37.664;2023-05-15T11:08:41;100398.13;;;26.49;25.48
35694;BME280;21812;55.536;37.664;2023-05-15T11:11:07;100394.47;;;26.74;25.07
35694;BME280;21812;55.536;37.664;2023-05-15T11:22:07;100394.44;;;27.63;23.10
35694;BME280;21812;55.536;37.664;2023-05-15T11:24:53;100364.91;;;27.55;23.40
35694;BME280;21812;55.536;37.664;2023-05-15T11:27:36;100388.19;;;27.87;24.01
35694;BME280;21812;55.536;37.664;2023-05-15T11:30:16;100382.75;;;27.82;23.10
35694;BME280;21812;55.536;37.664;2023-05-15T11:35:33;100387.06;;;28.17;23.23
35694;BME280;21812;55.536;37.664;2023-05-15T11:38:11;100382.06;;;28.49;22.21
35694;BME280;21812;55.536;37.664;2023-05-15T11:43:21;100378.03;;;28.84;21.88
35694;BME280;21812;55.536;37.664;2023-05-15T11:48:46;100353.28;;;28.65;21.30
35694;BME280;21812;55.536;37.664;2023-05-15T11:53:44;100367.97;;;29.50;20.22
35694;BME280;21812;55.536;37.664;2023-05-15T11:56:24;100335.25;;;29.95;20.53
35694;BME280;21812;55.536;37.664;2023-05-15T11:58:59;100366.28;;;30.43;19.23
35694;BME280;21812;55.536;37.664;2023-05-15T12:01:27;100354.91;;;30.72;19.51
35694;BME280;21812;55.536;37.664;2023-05-15T12:04:10;100361.66;;;30.52;20.13
35694;BME280;21812;55.536;37.664;2023-05-15T12:06:37;100360.16;;;30.46;19.34
35694;BME280;21812;55.536;37.664;2023-05-15T12:09:03;100363.06;;;30.63;19.18
35694;BME280;21812;55.536;37.664;2023-05-15T12:11:29;100357.38;;;30.59;19.98
35694;BME280;21812;55.536;37.664;2023-05-15T12:13:56;100356.44;;;30.64;20.02
35694;BME280;21812;55.536;37.664;2023-05-15T12:16:24;100331.97;;;30.21;18.77
35694;BME280;21812;55.536;37.664;2023-05-15T12:18:50;100352.09;;;29.61;19.26
35694;BME280;21812;55.536;37.664;2023-05-15T12:21:16;100345.53;;;29.43;20.63
35694;BME280;21812;55.536;37.664;2023-05-15T12:23:49;100328.56;;;29.69;20.12
35694;BME280;21812;55.536;37.664;2023-05-15T12:26:16;100341.19;;;30.02;18.64
35694;BME280;21812;55.536;37.664;2023-05-15T12:28:42;100331.38;;;29.96;18.94
35694;BME280;21812;55.536;37.664;2023-05-15T12:31:09;100329.53;;;30.84;18.88
35694;BME280;21812;55.536;37.664;2023-05-15T12:33:36;100325.38;;;31.31;18.09
35694;BME280;21812;55.536;37.664;2023-05-15T12:36:02;100334.84;;;31.39;18.97
35694;BME280;21812;55.536;37.664;2023-05-15T12:38:28;100330.31;;;31.66;18.63
35694;BME280;21812;55.536;37.664;2023-05-15T12:40:55;100321.16;;;32.28;18.91
35694;BME280;21812;55.536;37.664;2023-05-15T12:43:25;100327.94;;;32.13;17.76
35694;BME280;21812;55.536;37.664;2023-05-15T12:45:52;100329.91;;;30.68;18.67
35694;BME280;21812;55.536;37.664;2023-05-15T12:48:18;100330.41;;;29.59;20.09
35694;BME280;21812;55.536;37.664;2023-05-15T12:50:44;100334.44;;;30.09;19.96
35694;BME280;21812;55.536;37.664;2023-05-15T12:53:13;100309.41;;;30.97;19.21
35694;BME280;21812;55.536;37.664;2023-05-15T12:55:39;100321.16;;;32.37;17.35
35694;BME280;21812;55.536;37.664;2023-05-15T12:58:08;100299.28;;;31.60;17.59
35694;BME280;21812;55.536;37.664;2023-05-15T13:00:35;100308.19;;;30.89;18.60
35694;BME280;21812;55.536;37.664;2023-05-15T13:03:02;100321.91;;;30.02;19.24
35694;BME280;21812;55.536;37.664;2023-05-15T13:05:31;100298.53;;;30.14;18.86
35694;BME280;21812;55.536;37.664;2023-05-15T13:08:02;100316.28;;;30.49;18.54
35694;BME280;21812;55.536;37.664;2023-05-15T13:10:31;100307.31;;;30.94;18.44
35694;BME280;21812;55.536;37.664;2023-05-15T13:12:58;100309.03;;;30.90;19.11
35694;BME280;21812;55.536;37.664;2023-05-15T13:20:31;100297.19;;;31.34;17.00